Time;durP1;ratioP1;P1;durP2;ratioP2;P2;SDS_P1;SDS_P2;PMS_P1;PMS_P2;Temp;Humidity;BMP_temperature;BMP_pressure;BME280_temperature;BME280_humidity;BME280_pressure;Samples;Min_cycle;Max_cycle;Signal;HPM_P1;HPM_P2
2023/02/15 00:02:28;;;;;;;1.30;0.60;;;;;;;4.00;100.00;101465.36;109168;1256;60209;-85
2023/02/15 00:05:17;;;;;;;1.90;0.80;;;;;;;3.85;100.00;101465.04;109298;1253;74897;-84
2023/02/15 00:08:07;;;;;;;1.70;0.90;;;;;;;3.86;100.00;101470.20;109347;1254;69118;-84
2023/02/15 00:11:09;;;;;;;2.00;1.20;;;;;;;3.88;100.00;101466.32;109243;1254;71371;-84
2023/02/15 00:13:58;;;;;;;1.60;0.70;;;;;;;3.92;100.00;101470.52;109157;1254;59711;-84
2023/02/15 00:16:48;;;;;;;1.20;0.70;;;;;;;3.91;100.00;101472.11;109067;1253;60440;-83
2023/02/15 00:19:38;;;;;;;2.30;0.80;;;;;;;3.93;100.00;101470.61;109120;1253;74905;-83
2023/02/15 00:22:27;;;;;;;2.60;0.70;;;;;;;3.77;100.00;101468.09;109321;1254;69289;-84
2023/02/15 00:25:16;;;;;;;1.70;0.70;;;;;;;3.79;100.00;101470.70;109310;1254;72588;-84
2023/02/15 00:28:05;;;;;;;2.70;1.00;;;;;;;3.85;100.00;101471.86;109293;1252;59428;-84
2023/02/15 00:31:10;;;;;;;1.50;0.90;;;;;;;3.86;100.00;101468.78;109330;1253;59539;-84
2023/02/15 00:34:06;;;;;;;1.30;0.70;;;;;;;3.81;100.00;101467.95;109133;1254;75460;-83
2023/02/15 00:36:57;;;;;;;0.60;0.50;;;;;;;3.85;100.00;101469.23;109238;1254;69089;-84
2023/02/15 00:39:46;;;;;;;1.40;1.00;;;;;;;3.77;100.00;101465.92;109132;1252;73241;-84
2023/02/15 00:42:35;;;;;;;2.10;0.70;;;;;;;3.73;100.00;101463.02;109054;1254;60513;-84
2023/02/15 00:45:23;;;;;;;1.10;0.70;;;;;;;3.73;100.00;101468.59;109078;1254;60258;-84
2023/02/15 00:48:13;;;;;;;1.70;1.00;;;;;;;3.73;100.00;101462.06;109160;1254;74936;-84
2023/02/15 00:51:03;;;;;;;1.00;0.80;;;;;;;3.71;100.00;101464.98;109345;1256;67806;-84
2023/02/15 00:53:51;;;;;;;1.90;0.90;;;;;;;3.75;100.00;101459.52;109242;1254;71776;-84
2023/02/15 00:56:40;;;;;;;1.10;0.80;;;;;;;3.66;100.00;101465.15;109333;1252;62237;-84
2023/02/15 00:59:31;;;;;;;1.20;0.90;;;;;;;3.63;100.00;101465.17;109074;1253;59680;-84
2023/02/15 01:02:20;;;;;;;1.10;0.80;;;;;;;3.61;100.00;101465.23;109178;1254;75700;-84
2023/02/15 01:05:09;;;;;;;1.80;1.10;;;;;;;3.56;100.00;101465.73;109186;1254;69811;-84
2023/02/15 01:08:00;;;;;;;1.60;1.00;;;;;;;3.53;100.00;101467.15;109337;1253;73856;-84
2023/02/15 01:10:49;;;;;;;1.00;0.80;;;;;;;3.51;100.00;101470.17;109178;1253;58983;-84
2023/02/15 01:13:39;;;;;;;1.50;0.70;;;;;;;3.45;100.00;101468.80;109187;1254;61524;-84
2023/02/15 01:16:29;;;;;;;3.20;1.30;;;;;;;3.36;100.00;101466.89;109185;1256;73876;-84
2023/02/15 01:19:18;;;;;;;2.70;0.80;;;;;;;3.36;100.00;101465.88;108974;1253;69105;-84
2023/02/15 01:22:06;;;;;;;0.90;0.70;;;;;;;3.38;100.00;101471.13;109249;1253;72619;-84
2023/02/15 01:24:56;;;;;;;0.80;0.60;;;;;;;3.47;100.00;101467.42;109072;1253;60387;-84
2023/02/15 01:27:45;;;;;;;0.60;0.50;;;;;;;3.52;100.00;101466.48;109324;1252;61652;-84
2023/02/15 01:30:34;;;;;;;0.70;0.70;;;;;;;3.54;100.00;101465.64;109164;1253;74260;-84
2023/02/15 01:33:22;;;;;;;0.70;0.70;;;;;;;3.61;100.00;101466.84;109083;1254;68725;-83
2023/02/15 01:36:11;;;;;;;0.90;0.50;;;;;;;3.62;100.00;101469.20;109126;1254;73430;-84
2023/02/15 01:39:01;;;;;;;1.30;0.70;;;;;;;3.68;100.00;101464.42;109345;1253;60146;-84
2023/02/15 01:41:52;;;;;;;0.30;0.30;;;;;;;3.70;100.00;101463.73;109233;1253;60834;-84
2023/02/15 01:44:45;;;;;;;0.80;0.60;;;;;;;3.72;100.00;101458.23;109278;1254;73820;-84
2023/02/15 01:47:42;;;;;;;1.30;0.40;;;;;;;3.70;100.00;101461.56;109340;1254;68684;-84
2023/02/15 01:50:44;;;;;;;0.70;0.60;;;;;;;3.72;100.00;101465.63;109191;1253;73113;-84
2023/02/15 01:53:39;;;;;;;0.90;0.60;;;;;;;3.75;100.00;101468.67;109339;1254;60171;-84
2023/02/15 01:56:31;;;;;;;1.70;0.40;;;;;;;3.75;100.00;101467.64;109056;1256;60427;-84
2023/02/15 01:59:21;;;;;;;0.70;0.40;;;;;;;3.67;100.00;101467.39;109089;1254;75463;-84
2023/02/15 02:02:10;;;;;;;0.50;0.40;;;;;;;3.61;100.00;101464.61;109228;1254;66355;-84
2023/02/15 02:05:02;;;;;;;0.70;0.60;;;;;;;3.61;100.00;101464.44;109117;1254;71396;-84
2023/02/15 02:07:52;;;;;;;0.50;0.40;;;;;;;3.68;100.00;101465.14;109361;1254;59066;-84
2023/02/15 02:10:46;;;;;;;0.80;0.70;;;;;;;3.69;100.00;101467.98;109105;1254;59129;-84
2023/02/15 02:13:37;;;;;;;0.90;0.60;;;;;;;3.70;100.00;101463.84;109275;1254;72847;-84
2023/02/15 02:16:44;;;;;;;3.00;0.80;;;;;;;3.74;100.00;101465.39;109349;1254;69530;-84
2023/02/15 02:19:35;;;;;;;2.10;1.00;;;;;;;3.73;100.00;101471.45;109354;1254;73437;-84
2023/02/15 02:23:02;;;;;;;0.90;0.80;;;;;;;3.75;100.00;101470.83;109326;1253;60167;-84
2023/02/15 02:26:27;;;;;;;1.00;0.60;;;;;;;3.71;100.00;101472.88;109316;1252;59070;-84
2023/02/15 02:29:16;;;;;;;0.50;0.50;;;;;;;3.66;100.00;101474.17;109306;1256;77080;-84
2023/02/15 02:32:11;;;;;;;1.90;0.50;;;;;;;3.69;100.00;101474.04;109385;1254;69307;-84
2023/02/15 02:35:00;;;;;;;0.80;0.60;;;;;;;3.68;100.00;101477.95;109316;1254;72356;-84
2023/02/15 02:37:55;;;;;;;0.70;0.40;;;;;;;3.65;100.00;101480.37;109273;1253;60838;-84
2023/02/15 02:40:48;;;;;;;;;;;;;;;3.59;100.00;101482.27;109205;1254;60533;-84
2023/02/15 02:43:47;;;;;;;0.90;0.40;;;;;;;3.49;100.00;101488.42;109142;1254;74961;-84
2023/02/15 02:47:03;;;;;;;1.00;0.50;;;;;;;3.51;100.00;101489.30;109354;1254;67029;-84
2023/02/15 02:49:58;;;;;;;0.70;0.60;;;;;;;3.55;100.00;101496.87;109201;1252;74216;-83
2023/02/15 02:52:48;;;;;;;2.40;0.40;;;;;;;3.64;100.00;101497.22;109175;1252;60134;-84
2023/02/15 02:55:46;;;;;;;1.20;0.40;;;;;;;3.68;100.00;101503.10;109361;1254;60517;-84
2023/02/15 02:58:38;;;;;;;1.30;0.50;;;;;;;3.71;100.00;101505.23;109278;1255;75820;-84
2023/02/15 03:01:31;;;;;;;0.90;0.60;;;;;;;3.76;100.00;101506.31;109111;1254;66686;-84
2023/02/15 03:04:27;;;;;;;0.50;0.40;;;;;;;3.79;100.00;101509.80;109099;1255;73897;-84
2023/02/15 03:07:21;;;;;;;0.90;0.60;;;;;;;3.80;100.00;101508.44;109133;1254;61193;-84
2023/02/15 03:10:11;;;;;;;0.60;0.50;;;;;;;3.76;100.00;101507.60;109177;1254;59101;-84
2023/02/15 03:13:00;;;;;;;0.40;0.30;;;;;;;3.75;100.00;101507.02;109350;1256;75308;-84
2023/02/15 03:19:09;;;;;;;0.70;0.70;;;;;;;3.74;100.00;101506.88;109163;1254;74276;-84
2023/02/15 03:22:09;;;;;;;3.30;0.80;;;;;;;3.72;100.00;101511.67;109294;1254;60389;-84
2023/02/15 03:25:16;;;;;;;5.10;1.90;;;;;;;3.77;100.00;101513.14;109064;1253;60547;-84
2023/02/15 03:28:08;;;;;;;3.50;2.80;;;;;;;3.82;100.00;101514.59;109216;1254;73751;-84
2023/02/15 03:30:59;;;;;;;1.20;1.00;;;;;;;3.71;100.00;101518.25;109180;1254;69058;-84
2023/02/15 03:34:00;;;;;;;0.90;0.80;;;;;;;3.68;100.00;101514.80;108966;1254;72860;-84
2023/02/15 03:36:53;;;;;;;1.10;0.80;;;;;;;3.69;100.00;101521.37;109181;1254;62317;-84
2023/02/15 03:43:37;;;;;;;2.00;0.90;;;;;;;3.69;100.00;101531.31;109290;1254;74647;-84
2023/02/15 03:46:36;;;;;;;0.80;0.80;;;;;;;3.63;100.00;101531.55;109174;1252;70096;-84
2023/02/15 03:49:51;;;;;;;1.90;1.10;;;;;;;3.58;100.00;101538.77;109278;1253;72216;-84
2023/02/15 03:52:39;;;;;;;2.70;1.00;;;;;;;3.57;100.00;101542.48;109192;1253;60461;-84
2023/02/15 03:55:28;;;;;;;1.90;1.00;;;;;;;3.53;100.00;101543.81;109215;1253;59857;-84
2023/02/15 04:01:59;;;;;;;1.90;0.80;;;;;;;3.53;100.00;101545.85;109095;1256;69975;-84
2023/02/15 04:04:48;;;;;;;1.90;0.80;;;;;;;3.48;100.00;101549.34;109249;1254;71632;-84
2023/02/15 04:07:38;;;;;;;1.70;1.10;;;;;;;3.35;100.00;101545.43;109347;1254;60640;-84
2023/02/15 04:13:35;;;;;;;1.60;0.80;;;;;;;3.29;100.00;101551.62;109309;1254;74300;-84
2023/02/15 04:16:24;;;;;;;1.60;0.90;;;;;;;3.30;100.00;101553.45;109311;1255;69977;-84
2023/02/15 04:25:28;;;;;;;2.30;0.80;;;;;;;3.31;100.00;101561.97;109305;1255;61166;-84
2023/02/15 04:28:17;;;;;;;1.00;0.90;;;;;;;3.32;100.00;101564.85;109344;1253;75774;-84
2023/02/15 04:31:06;;;;;;;3.00;1.20;;;;;;;3.35;100.00;101562.81;109158;1257;68798;-84
2023/02/15 04:33:55;;;;;;;2.90;1.10;;;;;;;3.34;100.00;101566.77;109224;1254;74068;-84
2023/02/15 04:36:44;;;;;;;4.10;1.20;;;;;;;3.29;100.00;101567.08;109176;1252;59520;-84
2023/02/15 04:39:32;;;;;;;1.10;0.80;;;;;;;3.32;100.00;101570.91;109167;1254;59487;-84
2023/02/15 04:42:21;;;;;;;1.90;1.10;;;;;;;3.32;100.00;101567.58;109046;1254;76378;-84
2023/02/15 04:45:10;;;;;;;2.30;0.90;;;;;;;3.31;100.00;101572.77;109120;1254;69922;-84
2023/02/15 04:48:00;;;;;;;2.00;1.00;;;;;;;3.32;100.00;101576.33;109329;1253;73356;-84
2023/02/15 04:50:48;;;;;;;1.30;1.00;;;;;;;3.31;100.00;101574.42;109304;1254;59098;-84
2023/02/15 04:53:37;;;;;;;2.90;1.10;;;;;;;3.30;100.00;101580.14;109342;1254;59249;-84
2023/02/15 04:56:26;;;;;;;1.10;0.80;;;;;;;3.33;100.00;101574.45;109346;1253;72745;-84
2023/02/15 04:59:16;;;;;;;3.10;1.20;;;;;;;3.28;100.00;101580.01;108996;1254;69330;-84
2023/02/15 05:02:05;;;;;;;2.40;0.90;;;;;;;3.30;100.00;101581.16;109244;1253;71716;-84
2023/02/15 05:04:55;;;;;;;1.50;1.10;;;;;;;3.27;100.00;101584.45;109111;1254;60522;-84
2023/02/15 05:07:44;;;;;;;7.50;3.40;;;;;;;3.27;100.00;101589.23;109226;1254;59317;-84
2023/02/15 05:10:33;;;;;;;5.90;2.50;;;;;;;3.31;100.00;101589.04;109237;1254;75791;-85
2023/02/15 05:13:21;;;;;;;4.80;2.50;;;;;;;3.31;100.00;101590.73;109191;1254;68662;-84
2023/02/15 05:16:14;;;;;;;2.50;1.30;;;;;;;3.35;100.00;101596.77;109314;1254;73881;-84
2023/02/15 05:19:03;;;;;;;3.90;1.60;;;;;;;3.35;100.00;101603.92;109145;1253;59930;-85
2023/02/15 05:21:52;;;;;;;2.90;1.40;;;;;;;3.31;100.00;101611.92;109161;1253;60058;-84
2023/02/15 05:31:06;;;;;;;4.40;1.90;;;;;;;3.34;100.00;101613.52;109326;1254;71587;-84
2023/02/15 05:33:55;;;;;;;2.50;1.50;;;;;;;3.30;100.00;101613.52;109157;1254;59242;-85
2023/02/15 05:36:44;;;;;;;3.10;1.70;;;;;;;3.33;100.00;101609.78;109169;1257;59370;-83
2023/02/15 05:39:33;;;;;;;4.50;1.60;;;;;;;3.39;100.00;101611.92;109152;1254;75812;-84
2023/02/15 05:42:22;;;;;;;6.20;2.60;;;;;;;3.36;100.00;101612.75;109220;1254;67624;-85
2023/02/15 05:45:10;;;;;;;2.20;1.20;;;;;;;3.37;100.00;101618.07;109144;1253;73510;-84
2023/02/15 05:47:59;;;;;;;7.60;2.30;;;;;;;3.36;100.00;101620.31;109282;1256;59830;-84
2023/02/15 05:51:05;;;;;;;3.80;2.30;;;;;;;3.37;100.00;101620.65;109279;1254;61061;-83
2023/02/15 05:53:54;;;;;;;3.20;1.90;;;;;;;3.31;100.00;101619.05;109316;1254;76027;-84
2023/02/15 05:56:42;;;;;;;5.30;2.60;;;;;;;3.29;100.00;101620.91;108933;1253;70682;-89
2023/02/15 05:59:31;;;;;;;2.20;1.60;;;;;;;3.29;100.00;101621.19;109339;1253;72572;-88
2023/02/15 06:02:20;;;;;;;3.10;1.70;;;;;;;3.29;100.00;101621.40;109283;1254;59139;-88
2023/02/15 06:05:09;;;;;;;2.70;1.30;;;;;;;3.33;100.00;101620.78;109213;1253;60477;-89
2023/02/15 06:07:58;;;;;;;4.40;1.10;;;;;;;3.35;100.00;101630.20;109329;1253;73124;-88
2023/02/15 06:10:47;;;;;;;4.60;1.70;;;;;;;3.34;100.00;101627.83;109313;1253;69228;-88
2023/02/15 06:13:35;;;;;;;3.30;1.50;;;;;;;3.31;100.00;101630.79;109310;1252;72517;-87
2023/02/15 06:16:26;;;;;;;4.30;1.90;;;;;;;3.35;100.00;101627.91;109326;1252;59564;-89
2023/02/15 06:19:15;;;;;;;3.40;1.40;;;;;;;3.34;100.00;101621.38;109378;1256;60137;-89
2023/02/15 06:22:06;;;;;;;4.10;2.00;;;;;;;3.34;100.00;101627.11;109361;1252;72096;-89
2023/02/15 06:24:54;;;;;;;3.80;1.60;;;;;;;3.35;100.00;101628.86;109341;1254;68992;-88
2023/02/15 06:27:43;;;;;;;2.10;1.00;;;;;;;3.33;100.00;101626.94;109340;1253;73671;-89
2023/02/15 06:30:32;;;;;;;5.00;2.10;;;;;;;3.36;100.00;101628.00;109294;1254;60310;-89
2023/02/15 06:33:33;;;;;;;4.30;1.50;;;;;;;3.42;100.00;101625.35;109395;1251;60754;-90
2023/02/15 06:36:22;;;;;;;4.20;1.60;;;;;;;3.46;100.00;101621.63;109325;1252;74913;-89
2023/02/15 06:39:11;;;;;;;5.30;2.30;;;;;;;3.53;100.00;101620.39;109262;1251;68957;-88
2023/02/15 06:42:00;;;;;;;3.70;1.90;;;;;;;3.58;100.00;101625.64;109292;1253;72772;-90
2023/02/15 06:44:49;;;;;;;5.00;2.50;;;;;;;3.58;100.00;101626.35;109345;1254;59483;-87
2023/02/15 06:47:38;;;;;;;4.30;2.10;;;;;;;3.59;100.00;101626.92;109346;1251;59405;-90
2023/02/15 06:50:27;;;;;;;4.60;2.30;;;;;;;3.66;99.41;101619.80;109323;1252;72254;-89
2023/02/15 06:53:17;;;;;;;2.70;1.60;;;;;;;3.71;99.45;101621.34;109312;1253;66788;-90
2023/02/15 06:56:08;;;;;;;4.40;1.70;;;;;;;3.75;100.00;101622.73;109355;1253;73574;-91
2023/02/15 06:58:58;;;;;;;2.70;1.50;;;;;;;3.80;98.05;101621.57;109336;1253;60523;-89
2023/02/15 07:01:48;;;;;;;5.20;1.60;;;;;;;3.80;96.70;101619.37;109347;1253;59738;-90
2023/02/15 07:04:37;;;;;;;3.00;1.60;;;;;;;3.86;97.24;101623.62;109301;1254;73528;-90
2023/02/15 07:07:26;;;;;;;2.30;1.50;;;;;;;3.92;95.02;101627.09;109268;1254;68074;-89
2023/02/15 07:10:15;;;;;;;1.80;1.30;;;;;;;4.03;94.89;101627.67;109309;1254;73200;-89
2023/02/15 07:13:04;;;;;;;2.10;1.20;;;;;;;4.11;93.43;101631.10;109341;1252;59408;-90
2023/02/15 07:15:53;;;;;;;1.70;1.20;;;;;;;4.15;92.34;101626.89;109377;1254;60312;-90
2023/02/15 07:18:41;;;;;;;4.30;2.20;;;;;;;4.20;93.19;101630.72;109364;1253;74649;-90
2023/02/15 07:21:34;;;;;;;5.80;2.30;;;;;;;4.29;94.03;101632.29;109323;1254;69889;-90
2023/02/15 07:24:23;;;;;;;1.80;1.50;;;;;;;4.39;92.99;101630.97;109333;1253;71771;-89
2023/02/15 07:27:14;;;;;;;2.80;1.80;;;;;;;4.43;92.83;101632.91;109281;1253;59136;-88
2023/02/15 07:30:04;;;;;;;2.70;1.70;;;;;;;4.45;92.37;101634.07;109339;1253;58964;-88
2023/02/15 07:36:05;;;;;;;1.90;1.20;;;;;;;4.53;92.05;101638.36;109307;1253;69516;-91
2023/02/15 07:38:53;;;;;;;5.60;1.90;;;;;;;4.54;92.70;101640.98;109321;1252;73589;-90
2023/02/15 07:41:42;;;;;;;4.10;1.90;;;;;;;4.52;91.20;101644.77;109287;1253;59475;-89
2023/02/15 07:44:32;;;;;;;3.30;2.00;;;;;;;4.50;91.13;101651.05;109338;1253;59685;-89
2023/02/15 07:47:22;;;;;;;3.40;1.70;;;;;;;4.48;91.78;101651.90;109387;1251;75291;-89
2023/02/15 07:50:11;;;;;;;4.60;2.40;;;;;;;4.53;88.92;101648.10;109355;1253;67605;-91
2023/02/15 07:53:01;;;;;;;3.10;1.30;;;;;;;4.51;88.67;101648.31;109396;1251;73905;-89
2023/02/15 07:55:52;;;;;;;5.40;2.40;;;;;;;4.52;89.63;101648.93;109282;1253;59040;-89
2023/02/15 07:58:50;;;;;;;6.80;2.80;;;;;;;4.57;89.02;101649.27;109323;1254;59422;-89
2023/02/15 08:01:39;;;;;;;1.60;1.50;;;;;;;4.71;87.65;101647.29;109346;1251;75378;-90
2023/02/15 08:04:28;;;;;;;3.10;2.10;;;;;;;4.74;87.05;101646.31;109389;1253;68108;-91
2023/02/15 08:07:17;;;;;;;6.70;2.00;;;;;;;4.77;86.65;101649.02;109354;1251;72678;-89
2023/02/15 08:10:06;;;;;;;1.80;1.20;;;;;;;4.87;87.58;101646.38;109359;1252;59362;-89
2023/02/15 08:12:55;;;;;;;3.00;1.40;;;;;;;4.91;84.88;101649.40;109279;1252;60337;-87
2023/02/15 08:15:50;;;;;;;3.20;1.70;;;;;;;4.90;83.70;101647.54;109268;1253;73420;-91
2023/02/15 08:18:39;;;;;;;5.30;2.30;;;;;;;4.89;80.78;101653.77;109370;1252;69742;-89
2023/02/15 08:21:28;;;;;;;3.90;1.70;;;;;;;4.94;80.80;101649.23;109286;1253;72522;-91
2023/02/15 08:24:19;;;;;;;3.80;1.50;;;;;;;4.96;83.31;101648.73;109056;1253;59894;-91
2023/02/15 08:27:09;;;;;;;3.40;1.70;;;;;;;5.02;78.48;101648.04;109308;1253;62414;-88
2023/02/15 08:29:57;;;;;;;4.40;1.90;;;;;;;5.03;78.30;101648.95;109251;1254;74984;-91
2023/02/15 08:32:46;;;;;;;1.40;0.90;;;;;;;5.04;77.89;101647.29;109315;1251;68839;-88
2023/02/15 08:35:35;;;;;;;3.40;1.60;;;;;;;5.03;76.11;101650.41;109347;1251;70723;-89
2023/02/15 08:38:24;;;;;;;3.10;1.40;;;;;;;5.10;76.06;101652.89;109304;1253;59535;-90
2023/02/15 08:41:18;;;;;;;1.30;1.00;;;;;;;5.12;71.22;101652.48;109345;1253;61513;-91
2023/02/15 08:44:07;;;;;;;1.60;1.20;;;;;;;5.12;70.98;101652.09;109320;1252;75247;-88
2023/02/15 08:47:02;;;;;;;2.70;1.50;;;;;;;5.12;72.26;101655.93;109400;1253;68012;-90
2023/02/15 08:49:51;;;;;;;1.90;1.10;;;;;;;5.11;69.19;101658.48;109348;1253;72624;-89
2023/02/15 08:52:39;;;;;;;2.20;1.00;;;;;;;5.17;70.70;101655.91;109244;1254;59296;-88
2023/02/15 08:55:28;;;;;;;4.00;1.40;;;;;;;5.20;67.56;101661.86;109339;1253;60916;-88
2023/02/15 08:58:17;;;;;;;2.10;1.00;;;;;;;5.14;66.42;101657.34;109368;1251;74654;-89
2023/02/15 09:01:22;;;;;;;0.90;0.80;;;;;;;5.12;68.41;101655.18;109374;1251;69436;-91
2023/02/15 09:04:12;;;;;;;4.10;1.40;;;;;;;5.12;67.92;101656.38;109252;1253;71960;-88
2023/02/15 09:07:04;;;;;;;1.00;0.90;;;;;;;5.14;69.86;101656.71;109284;1253;59698;-90
2023/02/15 09:09:53;;;;;;;1.70;1.10;;;;;;;5.20;67.93;101658.44;109367;1252;60846;-90
2023/02/15 09:12:42;;;;;;;1.70;1.00;;;;;;;5.31;66.12;101653.52;109305;1251;74631;-88
2023/02/15 09:15:31;;;;;;;1.10;1.00;;;;;;;5.40;62.59;101655.45;109352;1253;68761;-88
2023/02/15 09:18:21;;;;;;;3.30;1.00;;;;;;;5.47;62.27;101654.56;109338;1252;71378;-87
2023/02/15 09:21:14;;;;;;;0.70;0.60;;;;;;;5.50;60.98;101653.71;109294;1253;59136;-89
2023/02/15 09:24:05;;;;;;;2.00;1.20;;;;;;;5.52;58.03;101661.47;109153;1253;60308;-88
2023/02/15 09:26:59;;;;;;;1.30;1.10;;;;;;;5.45;56.10;101661.05;109386;1251;75541;-89
2023/02/15 09:29:48;;;;;;;2.90;1.10;;;;;;;5.34;55.70;101662.17;109430;1251;68042;-88
2023/02/15 09:32:37;;;;;;;1.20;0.90;;;;;;;5.36;57.40;101657.00;109334;1252;73356;-87
2023/02/15 09:35:26;;;;;;;2.40;1.20;;;;;;;5.37;55.25;101662.84;109342;1253;59117;-90
2023/02/15 09:38:15;;;;;;;1.80;1.10;;;;;;;5.38;55.80;101654.03;109272;1251;60862;-89
2023/02/15 09:41:26;;;;;;;3.50;1.40;;;;;;;5.48;54.12;101648.48;109252;1253;74653;-88
2023/02/15 09:44:39;;;;;;;1.80;0.70;;;;;;;5.65;54.70;101642.89;109282;1253;67126;-91
2023/02/15 09:47:43;;;;;;;2.40;1.20;;;;;;;5.76;53.15;101645.74;109349;1251;72841;-90
2023/02/15 09:50:46;;;;;;;3.60;1.00;;;;;;;5.78;51.74;101643.39;109175;1252;59447;-89
2023/02/15 09:53:47;;;;;;;1.00;0.80;;;;;;;5.67;51.77;101646.33;109332;1251;59387;-89
2023/02/15 09:56:45;;;;;;;2.30;1.30;;;;;;;5.65;51.44;101643.05;109258;1253;75093;-90
2023/02/15 09:59:55;;;;;;;1.50;0.60;;;;;;;5.72;52.28;101649.98;109369;1252;69008;-88
2023/02/15 10:03:02;;;;;;;1.30;0.80;;;;;;;5.72;52.11;101657.36;109323;1252;71683;-89
2023/02/15 10:06:20;;;;;;;1.30;1.00;;;;;;;5.73;53.08;101658.31;109313;1252;59161;-90
2023/02/15 10:09:43;;;;;;;1.90;0.80;;;;;;;5.79;54.56;101650.92;109175;1254;59268;-90
2023/02/15 10:13:05;;;;;;;3.20;1.10;;;;;;;5.90;53.54;101652.83;109317;1254;75058;-89
2023/02/15 10:16:12;;;;;;;0.70;0.70;;;;;;;5.97;52.82;101649.73;109186;1253;68996;-91
2023/02/15 10:19:07;;;;;;;3.70;0.80;;;;;;;5.94;52.02;101646.55;109294;1253;72840;-88
2023/02/15 10:22:02;;;;;;;0.60;0.60;;;;;;;5.88;50.91;101651.88;109230;1252;60350;-89
2023/02/15 10:25:11;;;;;;;1.20;0.60;;;;;;;5.79;50.80;101655.64;109228;1251;63402;-89
2023/02/15 10:28:13;;;;;;;0.90;0.70;;;;;;;5.95;51.55;101649.81;109360;1251;75094;-90
2023/02/15 10:31:12;;;;;;;1.90;0.90;;;;;;;6.04;51.12;101653.02;109280;1253;67665;-88
2023/02/15 10:34:18;;;;;;;0.70;0.70;;;;;;;6.02;51.81;101648.65;109230;1253;73907;-88
2023/02/15 10:37:49;;;;;;;1.40;0.60;;;;;;;6.12;50.01;101650.28;109311;1253;60759;-88
2023/02/15 10:41:03;;;;;;;1.20;0.70;;;;;;;6.03;48.88;101654.06;109247;1252;61287;-89
2023/02/15 10:44:26;;;;;;;1.30;0.50;;;;;;;6.00;49.27;101651.84;109334;1251;75340;-89
2023/02/15 10:47:27;;;;;;;2.10;0.70;;;;;;;6.05;49.39;101645.66;109303;1253;69332;-89
2023/02/15 10:50:59;;;;;;;1.50;1.00;;;;;;;6.18;50.32;101649.95;109282;1253;73286;-89
2023/02/15 10:54:00;;;;;;;0.80;0.60;;;;;;;6.29;49.99;101650.56;108931;1252;59069;-89
2023/02/15 10:57:01;;;;;;;1.60;0.90;;;;;;;6.32;49.72;101647.20;109217;1251;59947;-87
2023/02/15 10:59:59;;;;;;;1.80;1.00;;;;;;;6.24;49.72;101646.34;109337;1252;75105;-88
2023/02/15 11:03:02;;;;;;;1.80;1.10;;;;;;;6.10;48.98;101648.75;109282;1253;70565;-91
2023/02/15 11:06:04;;;;;;;1.80;0.90;;;;;;;5.87;50.51;101648.34;109221;1252;71250;-90
2023/02/15 11:08:57;;;;;;;0.90;0.80;;;;;;;5.92;50.86;101648.18;109304;1252;60279;-88
2023/02/15 11:11:51;;;;;;;0.50;0.50;;;;;;;5.91;50.61;101650.73;109165;1253;62181;-89
2023/02/15 11:14:43;;;;;;;0.80;0.60;;;;;;;5.91;50.22;101651.90;109308;1251;75095;-88
2023/02/15 11:17:38;;;;;;;1.10;0.70;;;;;;;5.87;51.06;101649.46;109338;1253;70237;-88
2023/02/15 11:20:30;;;;;;;1.30;0.80;;;;;;;5.93;50.55;101645.84;109145;1254;72737;-88
2023/02/15 11:23:19;;;;;;;;;;;;;;;5.87;50.30;101656.79;109271;1253;59354;-87
2023/02/15 11:26:30;;;;;;;1.20;1.00;;;;;;;5.71;51.15;101658.58;109325;1252;60725;-86
2023/02/15 11:29:23;;;;;;;2.00;0.90;;;;;;;5.44;50.66;101657.21;109087;1252;73820;-86
2023/02/15 11:32:35;;;;;;;0.70;0.70;;;;;;;5.40;51.24;101652.72;109227;1251;69618;-85
2023/02/15 11:35:37;;;;;;;2.20;0.90;;;;;;;5.67;51.51;101654.90;109193;1251;73062;-86
2023/02/15 11:38:28;;;;;;;1.90;1.20;;;;;;;5.62;50.94;101658.20;109188;1251;59461;-86
2023/02/15 11:41:20;;;;;;;1.50;0.80;;;;;;;5.74;52.02;101655.93;109159;1251;60546;-86
2023/02/15 11:44:12;;;;;;;0.80;0.80;;;;;;;5.73;52.02;101655.27;109293;1252;73829;-87
2023/02/15 11:47:01;;;;;;;0.70;0.60;;;;;;;5.64;52.55;101655.79;109329;1253;68978;-88
2023/02/15 11:49:54;;;;;;;0.90;0.90;;;;;;;5.54;52.19;101655.16;109249;1251;70396;-86
2023/02/15 11:52:43;;;;;;;4.00;1.70;;;;;;;5.44;52.55;101658.81;109234;1252;59623;-86
2023/02/15 11:55:33;;;;;;;1.50;0.60;;;;;;;5.40;52.47;101657.07;109238;1253;60483;-86
2023/02/15 11:58:54;;;;;;;5.40;0.80;;;;;;;5.37;51.58;101652.70;109355;1256;72169;-86
2023/02/15 12:01:44;;;;;;;1.60;0.60;;;;;;;5.43;52.31;101653.55;109339;1252;69985;-86
2023/02/15 12:04:58;;;;;;;0.60;0.60;;;;;;;5.44;51.09;101653.96;109164;1254;71355;-88
2023/02/15 12:07:52;;;;;;;0.90;0.80;;;;;;;5.41;50.12;101651.09;108878;1256;59706;-87
2023/02/15 12:10:47;;;;;;;1.90;1.00;;;;;;;5.34;50.27;101647.38;108979;1256;60040;-86
2023/02/15 12:13:36;;;;;;;3.20;1.20;;;;;;;5.37;52.06;101648.73;109033;1255;76279;-86
2023/02/15 12:16:27;;;;;;;1.20;0.90;;;;;;;5.42;54.12;101641.97;109107;1254;69655;-87
2023/02/15 12:19:40;;;;;;;2.30;1.10;;;;;;;5.50;55.46;101640.96;108926;1254;72567;-86
2023/02/15 12:22:31;;;;;;;2.50;1.30;;;;;;;5.63;56.74;101646.27;109094;1257;59406;-87
2023/02/15 12:25:29;;;;;;;2.00;1.30;;;;;;;5.78;54.70;101647.33;108952;1256;61340;-86
2023/02/15 12:28:36;;;;;;;1.00;0.60;;;;;;;5.74;53.44;101646.17;109015;1255;74321;-86
2023/02/15 12:31:32;;;;;;;4.00;2.80;;;;;;;5.69;53.81;101646.95;108945;1256;67250;-87
